createdAt,value
2022-07-29T00:03:06.846Z,107.39523
2022-07-29T00:08:12.220Z,106.96296
2022-07-29T00:13:13.832Z,107.39523
2022-07-29T00:18:14.790Z,107.39523
2022-07-29T00:23:15.727Z,106.53298
2022-07-29T00:28:16.706Z,106.53298
2022-07-29T00:33:17.834Z,106.53298
2022-07-29T00:38:18.897Z,106.53298
2022-07-29T00:43:20.051Z,106.53298
2022-07-29T00:48:21.297Z,106.53298
2022-07-29T00:53:22.545Z,106.96296
2022-07-29T00:58:24.564Z,106.96296
2022-07-29T01:03:25.625Z,106.10526
2022-07-29T01:08:26.814Z,106.10526
2022-07-29T01:13:27.746Z,106.10526
2022-07-29T01:33:55.371Z,106.10526
2022-07-29T01:38:56.433Z,106.53298
2022-07-29T01:44:02.298Z,106.53298
2022-07-29T01:49:03.293Z,106.96296
2022-07-29T01:54:04.309Z,106.96296
2022-07-29T01:59:05.195Z,106.96296
2022-07-29T02:04:06.143Z,106.96296
2022-07-29T02:09:07.134Z,106.96296
2022-07-29T02:19:10.062Z,105.67979
2022-07-29T02:24:11.025Z,106.10526
2022-07-29T02:29:11.952Z,106.10526
2022-07-29T02:34:13.488Z,105.25654
2022-07-29T02:39:14.629Z,105.25654
2022-07-29T02:44:15.841Z,105.25654
2022-07-29T02:49:17.103Z,105.25654
2022-07-29T02:54:18.534Z,105.25654
2022-07-29T02:59:19.981Z,105.25654
2022-07-29T03:04:21.340Z,105.25654
2022-07-29T03:09:22.496Z,105.25654
2022-07-29T03:14:23.376Z,105.25654
2022-07-29T03:19:24.292Z,104.83551
2022-07-29T03:24:25.305Z,104.83551
2022-07-29T03:29:33.297Z,104.83551
2022-07-29T03:34:35.361Z,104.83551
2022-07-29T03:39:36.268Z,104.83551
2022-07-29T03:44:37.152Z,104.83551
2022-07-29T03:49:38.482Z,104.83551
2022-07-29T03:54:39.559Z,103.58549
2022-07-29T03:59:40.506Z,103.58549
2022-07-29T04:04:41.512Z,103.58549
2022-07-29T04:09:42.416Z,102.76289
2022-07-29T04:14:43.340Z,101.94872
2022-07-29T04:19:44.227Z,101.54476
2022-07-29T04:24:45.154Z,100.743
2022-07-29T04:29:56.577Z,100.34518
2022-07-29T04:34:58.524Z,100.34518
2022-07-29T04:39:59.519Z,100.743
2022-07-29T04:50:00.923Z,100.34518
2022-07-29T04:55:01.826Z,101.54476
2022-07-29T05:00:02.744Z,101.14286
2022-07-29T05:05:03.702Z,100.743
2022-07-29T05:10:04.817Z,100.34518
2022-07-29T05:15:05.803Z,99.94937
2022-07-29T05:20:06.811Z,99.94937
2022-07-29T05:25:09.290Z,99.55556
2022-07-29T05:30:10.368Z,99.55556
2022-07-29T05:35:11.415Z,100.743
2022-07-29T05:40:12.382Z,100.743
2022-07-29T05:45:13.369Z,100.34518
2022-07-29T05:50:14.590Z,99.55556
2022-07-29T05:55:15.500Z,99.55556
2022-07-29T06:00:16.432Z,100.34518
2022-07-29T06:10:17.856Z,98.38596
2022-07-29T06:15:19.034Z,97.61596
2022-07-29T06:20:20.013Z,99.55556
2022-07-29T06:25:28.594Z,99.55556
2022-07-29T06:35:38.666Z,97.61596
2022-07-29T06:40:43.722Z,97.61596
2022-07-29T06:45:45.667Z,96.8536
2022-07-29T06:50:46.642Z,96.47525
2022-07-29T06:55:47.636Z,97.61596
2022-07-29T07:00:48.767Z,97.23383
2022-07-29T07:05:50.379Z,97.61596
2022-07-29T07:15:52.006Z,96.8536
2022-07-29T07:20:52.950Z,98.0
2022-07-29T07:36:19.810Z,96.09877
2022-07-29T07:46:25.860Z,95.72414
2022-07-29T07:51:26.920Z,96.09877
2022-07-29T07:56:30.715Z,95.72414
2022-07-29T08:01:48.112Z,94.98039
2022-07-29T08:06:56.813Z,94.2439
2022-07-29T08:22:09.004Z,92.43373
2022-07-29T08:32:10.388Z,93.15254
2022-07-29T08:37:11.616Z,94.2439
2022-07-29T08:42:12.568Z,95.35135
2022-07-29T08:47:13.531Z,94.98039
2022-07-29T08:52:14.558Z,96.47525
2022-07-29T08:57:15.544Z,93.51456
2022-07-29T09:02:18.781Z,93.15254
2022-07-29T09:07:19.703Z,94.2439
2022-07-29T09:12:29.396Z,93.87835
2022-07-29T09:22:31.746Z,91.36842
2022-07-29T09:27:32.801Z,91.72182
2022-07-29T09:32:33.704Z,91.72182
2022-07-29T09:37:34.797Z,94.98039
2022-07-29T09:42:35.791Z,96.09877
2022-07-29T09:47:39.244Z,96.8536
2022-07-29T09:52:46.726Z,96.47525
2022-07-29T09:57:47.660Z,97.23383
2022-07-29T10:02:48.576Z,99.94937
2022-07-29T10:07:53.474Z,98.0
2022-07-29T10:12:56.387Z,96.09877
2022-07-29T10:18:06.022Z,98.38596
2022-07-29T10:23:12.556Z,100.34518
2022-07-29T10:28:16.540Z,97.23383
2022-07-29T10:33:17.939Z,96.8536
2022-07-29T10:38:18.872Z,98.0
2022-07-29T10:43:20.149Z,97.23383
2022-07-29T10:48:21.128Z,100.34518
2022-07-29T10:53:24.883Z,96.09877
2022-07-29T10:58:26.280Z,94.61125
2022-07-29T11:03:27.598Z,101.14286
2022-07-29T11:08:29.685Z,96.47525
2022-07-29T11:13:30.559Z,98.0
2022-07-29T11:18:37.113Z,96.47525
2022-07-29T11:23:38.046Z,96.8536
2022-07-29T11:28:39.684Z,96.47525
2022-07-29T11:33:56.095Z,96.47525
2022-07-29T11:38:58.014Z,95.72414
2022-07-29T11:44:01.621Z,93.51456
2022-07-29T11:49:02.703Z,93.51456
2022-07-29T11:54:15.593Z,95.72414
2022-07-29T11:59:17.736Z,91.72182
2022-07-29T12:04:18.722Z,92.07692
2022-07-29T12:09:20.854Z,93.51456
2022-07-29T12:14:21.814Z,89.97156
2022-07-29T12:19:24.332Z,93.87835
2022-07-29T12:24:27.422Z,88.60094
2022-07-29T12:29:35.638Z,91.36842
2022-07-29T12:39:37.377Z,87.25581
2022-07-29T12:44:38.318Z,87.92523
2022-07-29T12:49:39.287Z,91.72182
2022-07-29T12:54:40.219Z,91.01671
2022-07-29T12:59:41.494Z,88.2623
2022-07-29T13:04:42.419Z,87.92523
2022-07-29T13:09:43.348Z,90.66667
2022-07-29T13:14:44.273Z,89.28302
2022-07-29T13:19:45.299Z,90.66667
2022-07-29T13:24:46.228Z,89.28302
2022-07-29T13:29:47.162Z,85.2844
2022-07-29T13:34:48.114Z,88.2623
2022-07-29T13:39:52.919Z,88.60094
2022-07-29T13:44:54.309Z,93.51456
2022-07-29T13:49:55.239Z,89.28302
2022-07-29T13:54:56.293Z,89.62648
2022-07-29T13:59:57.222Z,89.28302
2022-07-29T14:04:58.204Z,91.72182
2022-07-29T14:09:59.152Z,86.59259
2022-07-29T14:15:00.096Z,86.59259
2022-07-29T14:20:00.991Z,84.63927
2022-07-29T14:25:03.445Z,85.2844
2022-07-29T14:30:16.289Z,87.92523
2022-07-29T14:35:18.180Z,86.26328
2022-07-29T14:40:19.192Z,85.2844
2022-07-29T14:45:20.120Z,83.68254
2022-07-29T14:50:29.890Z,84.0
2022-07-29T14:55:33.245Z,86.92343
2022-07-29T15:00:34.201Z,87.25581
2022-07-29T15:05:35.135Z,88.94118
2022-07-29T15:10:36.133Z,89.62648
2022-07-29T15:15:37.086Z,86.59259
2022-07-29T15:20:37.995Z,85.93548
2022-07-29T15:25:39.260Z,86.26328
2022-07-29T15:30:40.716Z,84.9611
2022-07-29T15:35:41.928Z,88.60094
2022-07-29T15:40:42.991Z,86.92343
2022-07-29T15:45:44.016Z,88.2623
2022-07-29T15:55:45.722Z,87.25581
2022-07-29T16:05:52.303Z,91.01671
2022-07-29T16:10:53.409Z,91.01671
2022-07-29T16:20:54.917Z,87.92523
2022-07-29T16:26:00.506Z,88.60094
2022-07-29T16:32:08.375Z,65.9802
2022-07-29T16:39:22.778Z,87.92523
2022-07-29T16:44:25.212Z,88.94118
2022-07-29T16:49:26.465Z,89.62648
2022-07-29T16:54:27.419Z,89.62648
2022-07-29T16:59:28.322Z,89.97156
2022-07-29T17:04:29.250Z,91.36842
2022-07-29T17:09:30.146Z,90.31829
2022-07-29T17:14:31.060Z,91.72182
2022-07-29T17:19:32.011Z,94.61125
2022-07-29T17:29:33.407Z,93.87835
2022-07-29T17:34:34.329Z,92.79227
2022-07-29T17:39:35.286Z,93.87835
2022-07-29T17:44:36.578Z,92.79227
2022-07-29T17:49:37.596Z,93.15254
2022-07-29T17:54:38.486Z,92.07692
2022-07-29T17:59:39.440Z,94.61125
2022-07-29T18:04:40.329Z,93.87835
2022-07-29T18:09:41.262Z,94.61125
2022-07-29T18:14:42.549Z,95.72414
2022-07-29T18:19:43.521Z,97.23383
2022-07-29T18:24:44.452Z,97.23383
2022-07-29T18:29:45.382Z,96.8536
2022-07-29T18:34:52.160Z,97.61596
2022-07-29T18:39:56.028Z,98.77387
2022-07-29T18:44:59.010Z,98.77387
2022-07-29T18:49:59.977Z,98.0
2022-07-29T18:55:00.876Z,99.16373
2022-07-29T19:00:01.777Z,99.16373
2022-07-29T19:05:02.667Z,98.77387
2022-07-29T19:10:03.677Z,98.0
2022-07-29T19:15:04.618Z,97.61596
2022-07-29T19:25:05.997Z,99.94937
2022-07-29T19:30:06.920Z,101.54476
2022-07-29T19:35:07.843Z,102.35476
2022-07-29T19:40:08.828Z,101.94872
2022-07-29T19:45:09.781Z,100.34518
2022-07-29T19:50:10.728Z,100.34518
2022-07-29T19:55:11.615Z,101.94872
2022-07-29T20:10:13.453Z,102.76289
2022-07-29T20:15:16.590Z,102.35476
2022-07-29T20:20:17.653Z,105.67979
2022-07-29T20:25:18.645Z,104.83551
2022-07-29T20:30:19.569Z,102.76289
2022-07-29T20:35:22.062Z,101.94872
2022-07-29T20:40:22.990Z,103.58549
2022-07-29T20:45:23.905Z,102.76289
2022-07-29T20:50:24.802Z,102.76289
2022-07-29T20:55:25.709Z,103.17313
2022-07-29T21:00:26.614Z,104.41667
2022-07-29T21:05:27.527Z,103.17313
2022-07-29T21:10:28.437Z,103.17313
2022-07-29T21:15:29.397Z,103.17313
2022-07-29T21:20:30.618Z,102.35476
2022-07-29T21:25:31.516Z,102.76289
2022-07-29T21:30:32.410Z,101.54476
2022-07-29T21:36:06.171Z,102.35476
2022-07-29T21:41:11.514Z,103.58549
2022-07-29T21:46:12.714Z,104.0
2022-07-29T21:51:13.662Z,103.58549
2022-07-29T21:56:15.200Z,104.83551
2022-07-29T22:01:18.541Z,104.0
2022-07-29T22:06:19.479Z,104.41667
2022-07-29T22:11:20.425Z,103.17313
2022-07-29T22:16:21.412Z,103.17313
2022-07-29T22:21:22.505Z,104.0
2022-07-29T22:26:23.539Z,103.17313
2022-07-29T22:31:24.483Z,102.76289
2022-07-29T22:36:25.436Z,103.17313
2022-07-29T22:41:26.410Z,104.41667
2022-07-29T22:46:27.420Z,103.17313
2022-07-29T22:51:28.324Z,102.35476
2022-07-29T22:56:29.221Z,104.83551
2022-07-29T23:01:37.641Z,104.41667
2022-07-29T23:06:38.992Z,104.41667
2022-07-29T23:11:40.129Z,104.0
2022-07-29T23:16:41.088Z,104.0
2022-07-29T23:21:42.147Z,104.41667
2022-07-29T23:26:43.401Z,103.58549
2022-07-29T23:31:44.356Z,104.0
2022-07-29T23:36:49.259Z,103.58549
2022-07-29T23:41:50.193Z,103.17313
2022-07-29T23:46:51.224Z,103.17313
2022-07-29T23:51:52.259Z,102.76289
2022-07-29T23:56:53.147Z,102.35476
